Time;durP1;ratioP1;P1;durP2;ratioP2;P2;SDS_P1;SDS_P2;PMS_P1;PMS_P2;Temp;Humidity;BMP_temperature;BMP_pressure;BME280_temperature;BME280_humidity;BME280_pressure;Samples;Min_cycle;Max_cycle;Signal;HPM_P1;HPM_P2
2022/01/19 00:02:07;;;;;;;10.67;5.10;;;;;;;-3.59;100.00;101256.88;5058991;28;20220;-81
2022/01/19 00:04:35;;;;;;;10.57;5.07;;;;;;;-3.66;100.00;101261.66;5073429;28;20251;-84
2022/01/19 00:07:02;;;;;;;9.93;4.83;;;;;;;-3.59;100.00;101262.97;5059234;28;20664;-81
2022/01/19 00:09:48;;;;;;;11.13;5.00;;;;;;;-3.59;100.00;101262.97;5058512;28;20240;-81
2022/01/19 00:12:15;;;;;;;9.70;4.73;;;;;;;-3.46;100.00;101260.50;5077121;28;20178;-81
2022/01/19 00:15:46;;;;;;;8.83;4.80;;;;;;;-142.06;100.00;64312.41;5050541;22;20236;-81
2022/01/19 00:18:27;;;;;;;8.03;5.00;;;;;;;-3.46;100.00;101260.50;5073890;28;20229;-82
2022/01/19 00:20:56;;;;;;;10.57;5.43;;;;;;;-3.60;100.00;101256.06;5076418;28;20166;-82
2022/01/19 00:23:31;;;;;;;9.97;4.90;;;;;;;-3.60;100.00;101256.06;5059075;28;20229;-81
2022/01/19 00:25:58;;;;;;;7.70;4.57;;;;;;;-3.85;100.00;101234.84;5073714;28;20193;-81
2022/01/19 00:29:04;;;;;;;9.17;5.17;;;;;;;-3.85;100.00;101234.84;5070396;22;20224;-83
2022/01/19 00:31:33;;;;;;;9.73;4.60;;;;;;;-3.54;100.00;101267.94;5061207;28;20211;-82
2022/01/19 00:34:38;;;;;;;9.43;4.70;;;;;;;-3.54;100.00;101267.94;5079373;28;20552;-82
2022/01/19 00:37:05;;;;;;;8.53;4.30;;;;;;;-3.63;100.00;101285.03;5057966;28;20225;-82
2022/01/19 00:39:33;;;;;;;8.03;4.00;;;;;;;-3.65;100.00;101279.06;5071638;28;20252;-89
2022/01/19 00:42:00;;;;;;;5.60;3.93;;;;;;;-3.64;100.00;101282.53;5054125;28;20233;-91
2022/01/19 00:44:27;;;;;;;10.10;4.50;;;;;;;-3.70;100.00;101270.63;5039837;28;20221;-82
2022/01/19 00:47:39;;;;;;;9.70;4.37;;;;;;;;;;5040139;28;20225;-80
2022/01/19 00:50:13;;;;;;;10.47;4.10;;;;;;;-3.73;100.00;101280.41;5053775;28;20625;-84
2022/01/19 00:52:43;;;;;;;7.67;3.97;;;;;;;-3.73;100.00;101269.94;5054975;28;20234;-83
2022/01/19 00:55:12;;;;;;;10.13;4.27;;;;;;;-3.67;100.00;101269.59;5053547;28;20552;-90
2022/01/19 00:57:40;;;;;;;5.80;3.73;;;;;;;-3.69;100.00;101282.81;5035869;28;20340;-91
2022/01/19 01:00:10;;;;;;;10.57;4.00;;;;;;;-3.74;100.00;101263.03;5023371;28;20244;-82
2022/01/19 01:02:55;;;;;;;9.60;4.43;;;;;;;-3.74;100.00;101263.03;5022569;28;20289;-81
2022/01/19 01:05:24;;;;;;;7.60;3.83;;;;;;;-3.87;100.00;101251.59;5051622;28;20926;-82
2022/01/19 01:07:53;;;;;;;11.90;4.70;;;;;;;-3.89;100.00;101251.66;5054454;28;20236;-88
2022/01/19 01:10:30;;;;;;;6.83;3.90;;;;;;;-3.89;100.00;101251.66;5039906;28;20245;-82
2022/01/19 01:13:16;;;;;;;7.37;3.80;;;;;;;-3.93;100.00;101231.84;5054658;28;20221;-86
2022/01/19 01:16:01;;;;;;;8.67;3.80;;;;;;;-3.86;100.00;101251.47;5074158;28;20243;-88
2022/01/19 01:19:04;;;;;;;7.47;4.10;;;;;;;-3.86;100.00;101251.47;5056765;28;20231;-80
2022/01/19 01:21:34;;;;;;;5.67;3.77;;;;;;;-3.84;100.00;101239.16;5055994;28;20244;-82
2022/01/19 01:24:57;;;;;;;9.63;4.20;;;;;;;-142.06;nan;64312.41;5072247;28;20696;-82
2022/01/19 01:27:25;;;;;;;11.27;4.20;;;;;;;-3.82;100.00;101234.66;5069477;28;20256;-89
2022/01/19 01:29:53;;;;;;;9.33;4.83;;;;;;;-3.82;100.00;101234.66;5028865;28;20702;-95
2022/01/19 01:32:44;;;;;;;8.07;4.67;;;;;;;-3.82;100.00;101234.66;5052130;28;20222;-93
2022/01/19 01:35:13;;;;;;;11.67;5.97;;;;;;;-3.76;100.00;101192.41;5045210;28;20231;-85
2022/01/19 01:37:41;;;;;;;12.27;5.80;;;;;;;-3.69;100.00;101198.13;5023836;28;20272;-83
2022/01/19 01:40:12;;;;;;;16.07;6.40;;;;;;;-3.67;100.00;101186.63;5043819;28;20229;-90
2022/01/19 01:42:42;;;;;;;11.73;5.87;;;;;;;-3.67;100.00;101198.88;5028772;28;20229;-85
2022/01/19 01:45:13;;;;;;;10.53;5.77;;;;;;;-3.63;100.00;101200.38;5057544;28;20228;-86
2022/01/19 01:47:51;;;;;;;13.47;6.07;;;;;;;-3.63;100.00;101200.38;5036482;28;20233;-82
2022/01/19 01:53:26;;;;;;;10.47;5.63;;;;;;;-3.62;100.00;101209.91;5050354;28;20216;-89
2022/01/19 01:56:57;;;;;;;12.90;5.70;;;;;;;-142.06;100.00;64312.41;5057252;28;20245;-85
2022/01/19 02:00:42;;;;;;;9.87;6.07;;;;;;;-142.06;100.00;64312.41;5028686;28;20229;-84
2022/01/19 02:04:23;;;;;;;13.10;6.60;;;;;;;-142.06;100.00;64312.41;5050653;28;20214;-82
2022/01/19 02:07:30;;;;;;;12.53;6.17;;;;;;;-3.63;100.00;101158.44;5052436;28;20218;-80
2022/01/19 02:09:58;;;;;;;9.37;5.87;;;;;;;-3.65;100.00;101150.72;5051700;28;20244;-82
2022/01/19 02:16:08;;;;;;;11.53;6.50;;;;;;;-3.59;100.00;101149.47;5023483;28;20232;-82
2022/01/19 02:21:39;;;;;;;11.00;6.37;;;;;;;-3.48;100.00;101136.56;5034586;28;20221;-92
2022/01/19 02:24:10;;;;;;;9.87;6.37;;;;;;;-3.49;100.00;101134.03;5052333;28;20192;-81
2022/01/19 02:41:30;;;;;;;11.73;6.30;;;;;;;-3.52;100.00;101106.25;5040050;28;20230;-81
2022/01/19 02:43:57;;;;;;;16.97;6.50;;;;;;;-3.55;100.00;101099.41;5018994;28;20225;-81
2022/01/19 02:49:53;;;;;;;12.63;6.33;;;;;;;-3.51;100.00;101083.53;5052487;28;20230;-80
2022/01/19 02:52:22;;;;;;;9.87;5.67;;;;;;;-3.49;100.00;101074.63;5044924;28;21141;-82
2022/01/19 02:54:57;;;;;;;12.63;6.00;;;;;;;-3.54;100.00;101063.56;5046820;28;20229;-86
2022/01/19 02:57:26;;;;;;;10.03;5.63;;;;;;;-3.57;100.00;101046.28;5070806;23;20299;-81
2022/01/19 03:08:58;;;;;;;11.80;5.63;;;;;;;-3.58;100.00;101049.84;5083686;28;20208;-86
2022/01/19 03:11:24;;;;;;;11.87;5.47;;;;;;;-3.64;100.00;101042.34;5069693;28;20287;-84
2022/01/19 03:13:53;;;;;;;12.63;5.93;;;;;;;-3.66;100.00;101039.00;5086659;28;20354;-90
2022/01/19 03:16:40;;;;;;;11.83;5.97;;;;;;;-3.76;100.00;101039.66;5090681;28;20207;-82
2022/01/19 03:19:10;;;;;;;9.47;5.33;;;;;;;-3.77;100.00;101038.81;5089761;28;20232;-82
2022/01/19 03:21:41;;;;;;;11.83;5.80;;;;;;;-3.78;100.00;101031.88;5084757;28;20236;-85
2022/01/19 03:24:10;;;;;;;11.20;5.50;;;;;;;-3.87;100.00;101029.81;5063803;28;20686;-96
2022/01/19 03:26:37;;;;;;;9.17;5.67;;;;;;;-3.86;100.00;101031.50;5063125;28;20229;-93
2022/01/19 03:29:38;;;;;;;13.43;5.40;;;;;;;-3.86;100.00;101031.50;5063779;28;20236;-93
2022/01/19 03:32:05;;;;;;;10.03;6.13;;;;;;;-3.93;100.00;101032.84;5061146;28;20224;-90
2022/01/19 03:34:32;;;;;;;12.17;5.83;;;;;;;-3.94;100.00;101038.16;5062064;28;20231;-92
2022/01/19 03:37:04;;;;;;;12.13;5.50;;;;;;;-3.97;100.00;101026.09;5059090;28;20581;-86
2022/01/19 03:39:31;;;;;;;13.27;6.07;;;;;;;-3.90;100.00;101023.94;5074582;28;20225;-92
2022/01/19 03:42:00;;;;;;;10.57;6.07;;;;;;;-3.90;100.00;101023.94;5045651;28;20228;-89
2022/01/19 03:45:26;;;;;;;11.83;5.57;;;;;;;-142.06;100.00;64312.41;5063952;28;20256;-92
2022/01/19 03:48:12;;;;;;;11.13;5.23;;;;;;;-3.79;100.00;101019.75;5042478;28;20249;-89
2022/01/19 03:50:39;;;;;;;12.43;5.93;;;;;;;-3.90;100.00;101019.56;5031195;28;20708;-92
2022/01/19 03:53:06;;;;;;;12.00;5.83;;;;;;;-3.89;100.00;101016.00;5056069;28;20225;-89
2022/01/19 03:55:34;;;;;;;10.63;5.30;;;;;;;-3.77;100.00;101017.00;5074264;28;20308;-86
2022/01/19 03:58:01;;;;;;;12.27;6.10;;;;;;;-3.78;100.00;101012.72;5079674;28;20224;-85
2022/01/19 04:00:34;;;;;;;11.10;5.53;;;;;;;-3.80;100.00;100994.47;5065016;28;20312;-87
2022/01/19 04:03:05;;;;;;;11.20;5.97;;;;;;;-3.76;100.00;101000.38;5083239;28;20228;-91
2022/01/19 04:08:06;;;;;;;10.93;5.53;;;;;;;-3.70;100.00;100998.22;5082937;28;20599;-92
2022/01/19 04:10:33;;;;;;;10.83;5.83;;;;;;;-3.64;100.00;101005.66;5072398;28;20299;-89
2022/01/19 04:13:23;;;;;;;10.90;5.43;;;;;;;-3.66;100.00;100993.63;5085493;28;20224;-94
2022/01/19 04:15:51;;;;;;;9.43;5.37;;;;;;;-3.66;100.00;100983.16;5056042;28;20232;-93
2022/01/19 04:18:18;;;;;;;10.57;5.30;;;;;;;-3.60;100.00;100999.34;5085296;28;20220;-85
2022/01/19 04:21:01;;;;;;;8.80;5.20;;;;;;;-3.60;100.00;100999.34;5088942;28;20225;-81
2022/01/19 04:23:29;;;;;;;10.17;5.37;;;;;;;-3.70;100.00;100987.75;5089088;28;20240;-86
2022/01/19 04:25:56;;;;;;;12.47;5.50;;;;;;;-3.78;100.00;100970.81;5088347;28;20233;-85
2022/01/19 04:28:24;;;;;;;8.93;5.10;;;;;;;-3.78;100.00;100974.25;5072642;28;20220;-90
2022/01/19 04:31:07;;;;;;;9.00;5.13;;;;;;;-3.86;100.00;100965.22;5088324;28;20662;-88
2022/01/19 04:33:40;;;;;;;14.73;5.63;;;;;;;-3.92;100.00;100955.97;5085150;28;20250;-87
2022/01/19 05:07:03;;;;;;;8.83;5.40;;;;;;;-142.06;100.00;64312.41;5081419;28;20240;-87
2022/01/19 05:14:08;;;;;;;9.10;4.97;;;;;;;-142.06;100.00;64312.41;5048454;28;21080;-86
2022/01/19 05:17:36;;;;;;;10.40;5.00;;;;;;;-142.06;100.00;64312.41;5059820;28;20319;-96
2022/01/19 05:21:06;;;;;;;9.43;4.83;;;;;;;-142.06;100.00;64312.41;5061036;28;20225;-86
2022/01/19 05:24:51;;;;;;;11.70;4.90;;;;;;;-142.06;100.00;64312.41;5065701;28;20227;-93
2022/01/19 05:28:27;;;;;;;7.57;4.10;;;;;;;-142.06;100.00;64312.41;5062500;28;20232;-90
2022/01/19 05:31:52;;;;;;;7.00;4.33;;;;;;;-142.06;100.00;64312.41;5059831;28;20303;-89
2022/01/19 05:35:18;;;;;;;10.20;4.47;;;;;;;-142.06;100.00;64312.41;5062775;28;20229;-95
2022/01/19 05:38:52;;;;;;;9.23;4.47;;;;;;;-142.06;100.00;64312.41;5042552;28;20225;-90
2022/01/19 05:42:29;;;;;;;9.10;4.50;;;;;;;-142.06;100.00;64312.41;5061599;28;20221;-90
2022/01/19 05:45:54;;;;;;;12.40;6.50;;;;;;;-142.06;100.00;64312.41;5069732;28;20236;-87
2022/01/19 05:49:20;;;;;;;6.90;4.20;;;;;;;-142.06;100.00;64312.41;5085210;28;20244;-87
2022/01/19 05:51:48;;;;;;;5.80;4.17;;;;;;;-3.77;100.00;100893.91;5065860;28;20216;-94
2022/01/19 05:55:13;;;;;;;9.47;4.37;;;;;;;-142.06;100.00;64312.41;5062558;28;20224;-88
2022/01/19 05:57:43;;;;;;;7.90;4.30;;;;;;;-3.88;100.00;100905.09;5040906;28;20237;-92
2022/01/19 06:00:12;;;;;;;8.17;4.40;;;;;;;-3.90;100.00;100899.09;5057228;28;20339;-92
2022/01/19 06:03:46;;;;;;;7.00;4.30;;;;;;;-142.06;100.00;64312.41;5078812;28;20315;-84
2022/01/19 06:07:45;;;;;;;6.07;3.80;;;;;;;-142.06;100.00;64312.41;5073933;28;20221;-89
2022/01/19 06:10:42;;;;;;;8.83;4.40;;;;;;;-4.03;100.00;100909.50;5056725;28;20232;-86
2022/01/19 06:13:38;;;;;;;8.20;4.60;;;;;;;-4.03;100.00;100909.50;5071729;28;20283;-89
2022/01/19 06:16:05;;;;;;;7.57;4.13;;;;;;;-4.06;100.00;100888.75;5039676;28;20251;-93
2022/01/19 06:19:02;;;;;;;10.23;4.63;;;;;;;-4.06;100.00;100888.75;5049060;28;20227;-92
2022/01/19 06:21:32;;;;;;;9.63;4.40;;;;;;;-4.23;100.00;100902.03;5059390;28;20228;-94
2022/01/19 06:23:58;;;;;;;7.47;4.73;;;;;;;-4.26;100.00;100902.25;5053688;28;20252;-88
2022/01/19 06:26:41;;;;;;;10.20;5.47;;;;;;;-4.26;100.00;100902.25;5075663;28;20232;-93
2022/01/19 06:29:08;;;;;;;9.77;5.53;;;;;;;-4.38;100.00;100894.28;5055275;28;20225;-93
2022/01/19 06:31:36;;;;;;;8.47;4.83;;;;;;;-4.39;100.00;100890.03;5074236;28;20240;-91
2022/01/19 06:34:06;;;;;;;7.63;5.10;;;;;;;-4.36;100.00;100892.44;5056902;28;20248;-93
2022/01/19 06:36:53;;;;;;;10.23;5.00;;;;;;;-4.39;100.00;100887.41;5059117;28;20232;-93
2022/01/19 06:39:54;;;;;;;10.60;6.20;;;;;;;-4.39;100.00;100879.56;5010561;28;20266;-89
2022/01/19 06:42:21;;;;;;;8.77;6.30;;;;;;;-4.40;100.00;100877.88;5074645;28;20231;-94
2022/01/19 06:45:46;;;;;;;12.57;7.30;;;;;;;-142.06;100.00;64312.41;5076412;28;20220;-90
2022/01/19 06:48:42;;;;;;;10.93;6.50;;;;;;;-4.40;100.00;100877.88;5040774;28;20717;-95
2022/01/19 06:52:00;;;;;;;13.37;9.30;;;;;;;-142.06;100.00;79815.22;5059284;28;20216;-89
2022/01/19 06:55:26;;;;;;;13.43;10.87;;;;;;;-142.06;100.00;64312.41;5037313;28;20308;-93
2022/01/19 06:58:53;;;;;;;13.00;9.50;;;;;;;-142.06;100.00;64312.41;5054679;28;20256;-88
2022/01/19 07:02:25;;;;;;;14.73;9.50;;;;;;;-142.06;100.00;64312.41;5055879;28;20216;-94
2022/01/19 07:05:22;;;;;;;10.53;7.57;;;;;;;-4.40;100.00;100877.88;5057173;28;20275;-93
2022/01/19 07:07:59;;;;;;;9.60;6.27;;;;;;;-4.22;100.00;100843.53;5070016;28;20307;-88
2022/01/19 07:10:31;;;;;;;10.10;6.23;;;;;;;-4.19;100.00;100848.56;5057174;28;20228;-88
2022/01/19 07:13:00;;;;;;;7.87;5.67;;;;;;;-4.06;100.00;100844.25;5073578;28;20239;-94
2022/01/19 07:15:27;;;;;;;10.73;5.33;;;;;;;-4.18;100.00;100842.41;5057237;28;20346;-91
2022/01/19 07:18:53;;;;;;;8.60;4.57;;;;;;;-142.06;100.00;64312.41;5039717;28;20224;-93
2022/01/19 07:22:19;;;;;;;9.67;4.17;;;;;;;-142.06;100.00;64312.41;5037205;28;20229;-91
2022/01/19 07:25:12;;;;;;;8.67;4.73;;;;;;;-4.18;100.00;100842.41;5042703;28;20225;-93
2022/01/19 07:27:40;;;;;;;9.80;4.83;;;;;;;-3.89;100.00;100827.47;5076263;28;20216;-92
2022/01/19 07:30:10;;;;;;;8.40;5.00;;;;;;;-3.70;100.00;100835.81;5064506;28;20235;-89
2022/01/19 07:32:37;;;;;;;10.00;5.43;;;;;;;-3.64;100.00;100831.97;5057790;28;20225;-92
2022/01/19 07:35:10;;;;;;;8.43;4.53;;;;;;;-3.55;100.00;100832.19;5064793;28;20537;-92
2022/01/19 07:38:02;;;;;;;9.60;5.17;;;;;;;-3.58;100.00;100824.53;5082350;28;20301;-84
2022/01/19 07:40:36;;;;;;;9.53;6.77;;;;;;;-3.50;100.00;100807.50;5070313;28;20312;-95
2022/01/19 07:43:02;;;;;;;9.40;6.77;;;;;;;-3.30;100.00;100812.22;5069216;28;20682;-94
2022/01/19 07:45:48;;;;;;;11.73;6.40;;;;;;;-3.21;100.00;100816.84;5088522;28;20231;-89
2022/01/19 07:48:50;;;;;;;18.67;9.87;;;;;;;-3.20;100.00;100806.25;5085961;28;20220;-91
2022/01/19 07:52:36;;;;;;;19.27;10.97;;;;;;;-142.06;100.00;64312.41;5094218;28;20304;-82
2022/01/19 07:56:21;;;;;;;22.87;13.87;;;;;;;-142.06;100.00;64312.41;5098758;28;20223;-80
2022/01/19 07:59:21;;;;;;;15.90;10.90;;;;;;;-3.20;100.00;100806.25;5085578;28;20224;-81
2022/01/19 08:02:07;;;;;;;15.30;9.93;;;;;;;-2.65;100.00;100810.34;5097615;22;20224;-80
2022/01/19 08:06:07;;;;;;;14.23;8.30;;;;;;;-142.06;100.00;64312.41;5057332;28;20220;-80
2022/01/19 08:08:35;;;;;;;12.53;8.60;;;;;;;-2.41;100.00;100813.88;5053621;23;20213;-82
2022/01/19 08:11:47;;;;;;;13.37;8.70;;;;;;;-2.41;100.00;100813.88;5060447;28;20177;-81
2022/01/19 08:14:37;;;;;;;15.00;8.60;;;;;;;-2.17;100.00;100806.03;5060286;28;20225;-81
2022/01/19 08:17:38;;;;;;;12.80;8.10;;;;;;;-2.07;100.00;100807.06;5078225;28;20243;-81
2022/01/19 08:20:15;;;;;;;16.30;10.13;;;;;;;-2.11;100.00;100781.97;5061161;28;20185;-81
2022/01/19 08:23:06;;;;;;;17.03;10.30;;;;;;;-1.99;100.00;100782.88;5078259;28;20250;-81
2022/01/19 08:26:32;;;;;;;12.83;8.50;;;;;;;-1.87;100.00;100785.44;5077821;28;20255;-81
2022/01/19 08:29:09;;;;;;;15.17;7.93;;;;;;;-1.85;100.00;100780.06;5044612;28;20217;-81
2022/01/19 08:32:01;;;;;;;11.10;7.20;;;;;;;-1.76;100.00;100782.03;5056860;28;20214;-81
2022/01/19 08:35:11;;;;;;;13.13;8.50;;;;;;;-1.66;100.00;100776.91;5055320;28;20228;-82
2022/01/19 08:37:58;;;;;;;13.17;8.97;;;;;;;-1.48;100.00;100791.31;5073822;22;20232;-81
2022/01/19 08:42:24;;;;;;;14.23;8.93;;;;;;;-142.06;100.00;64312.41;5098806;22;20249;-81
2022/01/19 08:44:58;;;;;;;13.23;8.67;;;;;;;-1.11;100.00;100763.06;5102471;23;20287;-81
2022/01/19 08:47:35;;;;;;;16.70;9.33;;;;;;;-1.21;100.00;100749.78;5083891;28;20180;-80
2022/01/19 08:50:28;;;;;;;13.13;8.17;;;;;;;-1.05;100.00;100766.09;5115521;28;20232;-81
2022/01/19 08:53:25;;;;;;;15.63;8.13;;;;;;;-0.90;100.00;100759.66;5100685;28;20153;-82
2022/01/19 08:56:36;;;;;;;11.47;7.70;;;;;;;-0.50;100.00;100769.66;5116350;28;20226;-81
2022/01/19 08:59:40;;;;;;;13.00;8.20;;;;;;;-0.41;100.00;100766.31;5082724;28;20206;-82
2022/01/19 09:03:23;;;;;;;14.10;7.57;;;;;;;-142.06;100.00;64312.41;5116095;28;20216;-81
2022/01/19 09:06:38;;;;;;;12.93;7.77;;;;;;;-0.34;100.00;100756.13;5076545;28;20228;-82
2022/01/19 09:09:05;;;;;;;13.07;7.73;;;;;;;-0.33;100.00;100748.13;5071762;22;20236;-82
2022/01/19 09:11:38;;;;;;;10.00;7.77;;;;;;;-0.30;100.00;100739.13;5080617;23;20545;-81
2022/01/19 09:14:43;;;;;;;13.37;7.47;;;;;;;-0.20;100.00;100740.06;5117421;28;20240;-80
2022/01/19 09:17:11;;;;;;;9.10;5.83;;;;;;;-0.22;100.00;100734.06;5114655;28;20188;-80
2022/01/19 09:20:32;;;;;;;9.93;6.07;;;;;;;-0.21;100.00;100735.75;5108836;22;20228;-80
2022/01/19 09:23:25;;;;;;;13.00;6.30;;;;;;;0.04;100.00;100743.34;5093107;28;20251;-81
2022/01/19 09:25:54;;;;;;;10.53;6.00;;;;;;;0.08;100.00;100742.13;5076634;28;20238;-80
2022/01/19 09:28:21;;;;;;;11.30;6.53;;;;;;;0.12;100.00;100725.09;5077072;28;20308;-81
2022/01/19 09:31:29;;;;;;;9.13;5.40;;;;;;;0.44;100.00;100736.44;5072427;28;20231;-82
2022/01/19 09:34:11;;;;;;;10.17;5.63;;;;;;;0.44;100.00;100727.69;5075155;28;20205;-81
2022/01/19 09:36:45;;;;;;;12.80;6.43;;;;;;;0.39;100.00;100724.59;5100309;22;20223;-81
2022/01/19 09:40:25;;;;;;;11.80;6.40;;;;;;;-142.06;100.00;64312.41;5113288;22;20243;-82
2022/01/19 09:44:02;;;;;;;11.83;5.90;;;;;;;-142.06;100.00;64312.41;5104423;22;20249;-82
2022/01/19 09:46:30;;;;;;;10.97;5.90;;;;;;;0.54;100.00;100699.59;5126090;22;20235;-81
2022/01/19 09:49:08;;;;;;;9.77;6.10;;;;;;;0.57;100.00;100701.13;5082630;28;20198;-81
2022/01/19 09:51:40;;;;;;;10.73;5.57;;;;;;;0.54;100.00;100669.75;5114364;28;20227;-81
2022/01/19 09:54:15;;;;;;;9.87;6.10;;;;;;;0.94;100.00;100681.19;5114962;28;20211;-81
2022/01/19 09:56:48;;;;;;;10.53;5.97;;;;;;;0.73;100.00;100668.06;5081093;22;20294;-81
2022/01/19 09:59:17;;;;;;;12.80;6.40;;;;;;;0.76;100.00;100666.94;5057698;23;20243;-81
2022/01/19 10:02:26;;;;;;;11.50;6.50;;;;;;;0.90;100.00;100671.88;5086104;22;20221;-81
2022/01/19 10:05:11;;;;;;;10.03;5.50;;;;;;;0.95;100.00;100658.28;5077472;28;20220;-81
2022/01/19 10:08:12;;;;;;;8.73;5.57;;;;;;;1.08;100.00;100650.97;5095321;28;20199;-81
2022/01/19 10:10:42;;;;;;;14.13;5.63;;;;;;;1.14;100.00;100659.19;5115163;22;20243;-80
2022/01/19 10:19:50;;;;;;;8.20;5.27;;;;;;;1.51;100.00;100629.53;5015610;28;20213;-82
2022/01/19 10:22:25;;;;;;;9.67;5.03;;;;;;;1.62;99.62;100611.75;5035014;23;20215;-82
2022/01/19 10:25:07;;;;;;;12.20;6.13;;;;;;;1.74;98.46;100610.63;5091405;23;20239;-81
2022/01/19 10:34:34;;;;;;;11.00;5.40;;;;;;;2.15;97.41;100588.31;5108267;22;20381;-81
2022/01/19 10:37:05;;;;;;;12.00;6.87;;;;;;;2.21;96.43;100585.13;5091217;22;20209;-81
2022/01/19 10:40:14;;;;;;;11.07;6.63;;;;;;;2.36;96.50;100571.44;5096518;22;20238;-83
2022/01/19 10:42:41;;;;;;;15.30;7.83;;;;;;;2.39;96.66;100553.47;5066833;23;20228;-82
2022/01/19 10:45:18;;;;;;;12.20;8.20;;;;;;;2.53;96.30;100554.81;5050890;23;20568;-82
2022/01/19 10:48:09;;;;;;;12.83;7.53;;;;;;;2.65;96.71;100551.84;5079773;23;20321;-82
2022/01/19 10:50:46;;;;;;;14.07;7.93;;;;;;;2.70;96.65;100530.22;5074125;28;20198;-82
2022/01/19 10:53:32;;;;;;;11.53;7.60;;;;;;;2.75;96.79;100516.56;5186517;22;20296;-82
2022/01/19 10:56:35;;;;;;;12.03;7.53;;;;;;;3.00;95.93;100515.81;5094256;28;20203;-82
2022/01/19 10:59:10;;;;;;;12.73;7.63;;;;;;;3.04;95.65;100502.13;5121178;22;20219;-83
2022/01/19 11:02:13;;;;;;;14.00;7.97;;;;;;;3.11;95.02;100491.78;5122371;22;20207;-82
2022/01/19 11:05:00;;;;;;;12.90;8.07;;;;;;;3.21;95.41;100484.63;5110858;22;20254;-81
2022/01/19 11:11:02;;;;;;;15.00;8.70;;;;;;;3.42;93.34;100465.75;5309016;22;20195;-82
2022/01/19 11:13:42;;;;;;;15.30;9.20;;;;;;;3.34;92.90;100439.19;5034923;28;20206;-82
2022/01/19 11:16:18;;;;;;;15.17;8.60;;;;;;;3.60;92.27;100450.63;5038721;28;20214;-82
2022/01/19 11:18:47;;;;;;;13.43;8.10;;;;;;;3.46;92.96;100425.53;5037856;28;20171;-82
2022/01/19 11:21:30;;;;;;;12.87;8.33;;;;;;;3.73;92.75;100429.03;5019784;28;20207;-82
2022/01/19 11:24:19;;;;;;;13.17;8.07;;;;;;;3.72;91.10;100403.53;5020576;28;20183;-82
2022/01/19 11:27:11;;;;;;;12.83;8.10;;;;;;;4.01;89.39;100425.22;5104503;23;20309;-82
2022/01/19 11:30:29;;;;;;;14.37;7.93;;;;;;;4.04;88.71;100405.50;5073444;22;20204;-81
2022/01/19 11:33:29;;;;;;;11.73;7.37;;;;;;;3.98;89.09;100407.81;5098084;28;20215;-81
2022/01/19 11:36:08;;;;;;;12.97;7.73;;;;;;;4.10;89.05;100403.06;5070898;23;20273;-84
2022/01/19 11:39:05;;;;;;;13.60;8.23;;;;;;;4.15;88.87;100391.97;5102228;22;20237;-84
2022/01/19 11:41:44;;;;;;;13.10;7.80;;;;;;;4.34;87.54;100386.38;5074774;28;20196;-83
2022/01/19 11:44:27;;;;;;;11.43;6.90;;;;;;;4.51;84.75;100395.25;5205201;22;20228;-83
2022/01/19 11:47:12;;;;;;;9.03;6.50;;;;;;;4.49;83.96;100387.44;5073381;28;20221;-83
2022/01/19 11:50:10;;;;;;;10.67;6.20;;;;;;;4.54;82.76;100369.19;5068758;28;20634;-85
2022/01/19 11:52:55;;;;;;;14.03;7.00;;;;;;;4.68;81.35;100365.06;5041190;28;20197;-84
2022/01/19 11:56:01;;;;;;;11.70;6.73;;;;;;;4.60;82.20;100346.50;5073972;28;20193;-84
2022/01/19 11:59:01;;;;;;;11.93;6.57;;;;;;;4.67;80.67;100347.47;5169357;22;20227;-80
2022/01/19 12:01:28;;;;;;;9.17;7.17;;;;;;;4.67;81.62;100337.69;5064103;28;20197;-83
2022/01/19 12:04:18;;;;;;;11.07;6.57;;;;;;;4.74;82.35;100349.34;5063036;28;20240;-83
2022/01/19 12:06:47;;;;;;;12.33;6.83;;;;;;;4.68;82.46;100331.41;5069539;28;20231;-82
2022/01/19 12:09:23;;;;;;;12.57;6.80;;;;;;;4.63;83.47;100316.97;5246029;23;20238;-84
2022/01/19 12:12:12;;;;;;;10.50;6.73;;;;;;;4.83;84.02;100331.59;5118110;22;20232;-84
2022/01/19 12:15:07;;;;;;;10.90;7.17;;;;;;;4.82;84.23;100306.03;5074123;22;20223;-83
2022/01/19 12:17:56;;;;;;;14.03;6.73;;;;;;;4.92;81.74;100305.84;5064787;28;20240;-84
2022/01/19 12:20:55;;;;;;;11.53;6.73;;;;;;;4.87;80.28;100279.81;5088275;23;20216;-82
2022/01/19 12:23:34;;;;;;;11.53;6.50;;;;;;;5.03;80.71;100293.06;5099335;28;20167;-83
2022/01/19 12:26:06;;;;;;;11.60;6.47;;;;;;;5.10;80.02;100299.38;5114971;28;20180;-83
2022/01/19 12:28:49;;;;;;;14.20;6.73;;;;;;;5.13;79.10;100283.06;5115935;28;20482;-84
2022/01/19 12:31:28;;;;;;;10.47;6.30;;;;;;;5.30;78.80;100283.91;5107037;22;20197;-81
2022/01/19 12:34:10;;;;;;;11.73;6.70;;;;;;;5.32;78.50;100274.75;5077527;28;20189;-84
2022/01/19 12:36:58;;;;;;;9.10;5.90;;;;;;;5.43;78.52;100272.72;5096125;28;20177;-83
2022/01/19 12:39:31;;;;;;;11.37;6.20;;;;;;;5.52;78.25;100267.22;5096360;28;20168;-83
2022/01/19 12:42:39;;;;;;;10.47;6.40;;;;;;;5.67;76.57;100257.53;5096081;28;20181;-85
2022/01/19 12:45:37;;;;;;;14.23;6.37;;;;;;;5.57;78.14;100248.91;5078834;28;20264;-84
2022/01/19 12:48:07;;;;;;;13.17;6.10;;;;;;;5.52;79.02;100242.47;5095166;28;20539;-83
2022/01/19 12:50:47;;;;;;;9.00;6.10;;;;;;;5.50;77.68;100240.00;5098865;22;20255;-83
2022/01/19 12:53:25;;;;;;;10.23;6.10;;;;;;;5.46;78.47;100241.31;5103492;22;20211;-83
2022/01/19 12:55:57;;;;;;;13.23;6.30;;;;;;;5.54;77.10;100240.47;5063020;28;20763;-83
2022/01/19 12:58:37;;;;;;;9.73;6.10;;;;;;;5.55;76.37;100232.31;5098509;28;20222;-83
2022/01/19 13:01:10;;;;;;;10.43;5.60;;;;;;;5.63;74.25;100224.31;5115140;28;20191;-83
2022/01/19 13:03:43;;;;;;;9.10;5.80;;;;;;;5.42;75.68;100199.31;5098135;28;20200;-83
2022/01/19 13:06:14;;;;;;;10.07;6.20;;;;;;;5.36;76.19;100208.00;5096814;28;20176;-83
2022/01/19 13:09:07;;;;;;;10.63;5.70;;;;;;;5.49;75.82;100202.94;5114103;28;20216;-85
2022/01/19 13:11:46;;;;;;;10.20;6.03;;;;;;;5.54;75.75;100211.22;5099863;28;20212;-84
2022/01/19 13:14:16;;;;;;;10.27;5.63;;;;;;;5.56;74.57;100214.53;5098034;28;20204;-83
2022/01/19 13:16:49;;;;;;;10.37;6.30;;;;;;;5.31;74.92;100187.25;5117014;28;20287;-83
2022/01/19 13:19:30;;;;;;;9.50;5.80;;;;;;;5.49;75.36;100195.81;5095767;22;20570;-82
2022/01/19 13:22:21;;;;;;;11.37;6.20;;;;;;;5.53;74.51;100196.28;5090781;22;20216;-83
2022/01/19 13:24:51;;;;;;;9.10;5.97;;;;;;;5.27;76.03;100176.13;5103670;22;20221;-82
2022/01/19 13:27:19;;;;;;;11.73;6.80;;;;;;;5.36;76.61;100181.41;5210306;22;20240;-84
2022/01/19 13:30:30;;;;;;;10.53;5.77;;;;;;;5.46;76.40;100176.72;5102810;22;20276;-82
2022/01/19 13:32:59;;;;;;;9.13;5.60;;;;;;;5.35;77.38;100172.63;5096018;28;20242;-83
2022/01/19 13:35:29;;;;;;;11.07;6.00;;;;;;;5.39;77.43;100165.94;5078805;28;20197;-84
2022/01/19 13:38:15;;;;;;;9.97;6.20;;;;;;;5.46;77.62;100147.50;5103254;22;20229;-84
2022/01/19 13:40:50;;;;;;;10.63;5.97;;;;;;;5.53;75.79;100148.44;5049094;28;20189;-82
2022/01/19 13:43:20;;;;;;;10.57;6.80;;;;;;;5.50;76.19;100149.63;5166046;22;20229;-82
2022/01/19 13:46:16;;;;;;;10.90;6.00;;;;;;;5.64;75.90;100153.38;5082529;22;20220;-85
2022/01/19 13:48:50;;;;;;;8.67;6.27;;;;;;;5.47;75.69;100141.16;5163170;22;20244;-83
2022/01/19 13:51:18;;;;;;;9.80;5.90;;;;;;;5.49;76.44;100145.31;5022434;28;20190;-83
2022/01/19 13:54:01;;;;;;;10.77;6.03;;;;;;;5.55;76.58;100155.22;5037000;28;20190;-82
2022/01/19 13:56:41;;;;;;;11.17;5.67;;;;;;;5.46;76.65;100150.16;5037012;28;20222;-84
2022/01/19 13:59:46;;;;;;;9.97;5.53;;;;;;;5.47;75.07;100151.78;5054147;28;20187;-83
2022/01/19 14:02:17;;;;;;;11.93;6.10;;;;;;;5.42;75.43;100139.00;5088568;23;20285;-82
2022/01/19 14:04:52;;;;;;;8.50;5.83;;;;;;;5.39;76.61;100141.19;5052817;28;20219;-82
2022/01/19 14:07:20;;;;;;;12.07;6.13;;;;;;;5.28;77.73;100124.63;5026859;28;20189;-83
2022/01/19 14:09:49;;;;;;;9.90;5.90;;;;;;;5.39;77.19;100133.22;5067280;28;20235;-83
2022/01/19 14:12:19;;;;;;;12.23;5.73;;;;;;;5.27;77.30;100136.25;5049269;28;20206;-84
2022/01/19 14:14:50;;;;;;;10.00;6.10;;;;;;;5.30;76.36;100149.22;5050970;23;20253;-84
2022/01/19 14:17:34;;;;;;;10.80;6.03;;;;;;;5.23;77.31;100140.28;5109123;28;20278;-83